sensor_id;sensor_type;location;lat;lon;timestamp;pressure;altitude;pressure_sealevel;temperature;humidity
84724;BME280;74944;52.322;16.918;2024-02-21T00:02:29;101412.97;;;7.04;96.18
84724;BME280;74944;52.322;16.918;2024-02-21T00:04:55;101407.78;;;7.02;96.44
84724;BME280;74944;52.322;16.918;2024-02-21T00:07:20;101404.28;;;7.07;95.71
84724;BME280;74944;52.322;16.918;2024-02-21T00:09:46;101399.63;;;7.07;95.30
84724;BME280;74944;52.322;16.918;2024-02-21T00:12:12;101402.91;;;7.04;94.99
84724;BME280;74944;52.322;16.918;2024-02-21T00:14:39;101394.94;;;7.03;96.03
84724;BME280;74944;52.322;16.918;2024-02-21T00:17:06;101400.66;;;7.01;96.08
84724;BME280;74944;52.322;16.918;2024-02-21T00:19:34;101396.03;;;7.02;95.77
84724;BME280;74944;52.322;16.918;2024-02-21T00:22:00;101391.41;;;7.02;95.56
84724;BME280;74944;52.322;16.918;2024-02-21T00:24:26;101400.34;;;6.98;95.97
84724;BME280;74944;52.322;16.918;2024-02-21T00:26:51;101397.53;;;6.93;96.20
84724;BME280;74944;52.322;16.918;2024-02-21T00:29:17;101391.59;;;6.96;95.82
84724;BME280;74944;52.322;16.918;2024-02-21T00:31:43;101390.44;;;6.92;96.42
84724;BME280;74944;52.322;16.918;2024-02-21T00:34:10;101388.59;;;6.97;96.09
84724;BME280;74944;52.322;16.918;2024-02-21T00:36:36;101388.09;;;7.00;96.21
84724;BME280;74944;52.322;16.918;2024-02-21T00:39:02;101388.09;;;7.00;96.45
84724;BME280;74944;52.322;16.918;2024-02-21T00:41:28;101383.66;;;6.94;96.43
84724;BME280;74944;52.322;16.918;2024-02-21T00:43:53;101379.56;;;6.97;96.47
84724;BME280;74944;52.322;16.918;2024-02-21T00:46:19;101375.22;;;6.96;95.71
84724;BME280;74944;52.322;16.918;2024-02-21T00:48:44;101375.78;;;6.98;96.60
84724;BME280;74944;52.322;16.918;2024-02-21T00:51:10;101372.72;;;6.94;96.73
84724;BME280;74944;52.322;16.918;2024-02-21T00:53:36;101366.44;;;6.94;96.10
84724;BME280;74944;52.322;16.918;2024-02-21T00:56:05;101364.56;;;6.99;95.86
84724;BME280;74944;52.322;16.918;2024-02-21T00:58:31;101362.38;;;6.96;96.21
84724;BME280;74944;52.322;16.918;2024-02-21T01:00:57;101356.91;;;6.96;96.17
84724;BME280;74944;52.322;16.918;2024-02-21T01:03:22;101350.09;;;6.99;96.20
84724;BME280;74944;52.322;16.918;2024-02-21T01:05:48;101346.56;;;6.98;95.97
84724;BME280;74944;52.322;16.918;2024-02-21T01:08:15;101341.09;;;6.98;95.71
84724;BME280;74944;52.322;16.918;2024-02-21T01:10:40;101342.25;;;7.02;96.43
84724;BME280;74944;52.322;16.918;2024-02-21T01:13:06;101332.91;;;6.98;96.53
84724;BME280;74944;52.322;16.918;2024-02-21T01:15:32;101321.97;;;6.98;95.82
84724;BME280;74944;52.322;16.918;2024-02-21T01:17:58;101321.72;;;7.00;95.99
84724;BME280;74944;52.322;16.918;2024-02-21T01:20:24;101312.19;;;7.02;95.80
84724;BME280;74944;52.322;16.918;2024-02-21T01:22:50;101317.66;;;7.02;96.08
84724;BME280;74944;52.322;16.918;2024-02-21T01:25:15;101314.66;;;7.04;95.50
84724;BME280;74944;52.322;16.918;2024-02-21T01:27:41;101309.16;;;6.99;96.21
84724;BME280;74944;52.322;16.918;2024-02-21T01:30:07;101308.06;;;7.00;96.10
84724;BME280;74944;52.322;16.918;2024-02-21T01:32:33;101305.63;;;7.03;95.89
84724;BME280;74944;52.322;16.918;2024-02-21T01:34:59;101304.50;;;6.99;95.83
84724;BME280;74944;52.322;16.918;2024-02-21T01:37:24;101307.56;;;7.03;96.00
84724;BME280;74944;52.322;16.918;2024-02-21T01:39:50;101303.19;;;7.02;95.85
84724;BME280;74944;52.322;16.918;2024-02-21T01:42:16;101301.31;;;7.07;96.04
84724;BME280;74944;52.322;16.918;2024-02-21T01:44:41;101310.06;;;7.09;96.09
84724;BME280;74944;52.322;16.918;2024-02-21T01:47:07;101302.69;;;7.09;95.89
84724;BME280;74944;52.322;16.918;2024-02-21T01:49:33;101304.63;;;7.09;95.38
84724;BME280;74944;52.322;16.918;2024-02-21T01:52:00;101296.94;;;7.06;95.87
84724;BME280;74944;52.322;16.918;2024-02-21T01:54:26;101302.66;;;7.05;96.46
84724;BME280;74944;52.322;16.918;2024-02-21T01:56:54;101300.50;;;7.07;96.29
84724;BME280;74944;52.322;16.918;2024-02-21T01:59:21;101300.28;;;7.13;96.19
84724;BME280;74944;52.322;16.918;2024-02-21T02:01:47;101298.94;;;7.15;96.13
84724;BME280;74944;52.322;16.918;2024-02-21T02:04:13;101297.06;;;7.16;95.56
84724;BME280;74944;52.322;16.918;2024-02-21T02:06:40;101296.16;;;7.10;96.06
84724;BME280;74944;52.322;16.918;2024-02-21T02:09:06;101299.97;;;7.09;96.19
84724;BME280;74944;52.322;16.918;2024-02-21T02:11:32;101296.41;;;7.09;96.62
84724;BME280;74944;52.322;16.918;2024-02-21T02:13:58;101294.00;;;7.12;96.63
84724;BME280;74944;52.322;16.918;2024-02-21T02:16:24;101289.09;;;7.14;96.25
84724;BME280;74944;52.322;16.918;2024-02-21T02:18:49;101284.47;;;7.15;96.51
84724;BME280;74944;52.322;16.918;2024-02-21T02:21:23;101277.94;;;7.16;96.73
84724;BME280;74944;52.322;16.918;2024-02-21T02:23:52;101283.13;;;7.17;96.55
84724;BME280;74944;52.322;16.918;2024-02-21T02:26:18;101278.50;;;7.18;96.91
84724;BME280;74944;52.322;16.918;2024-02-21T02:28:44;101275.78;;;7.18;96.94
84724;BME280;74944;52.322;16.918;2024-02-21T02:31:09;101281.81;;;7.20;97.14
84724;BME280;74944;52.322;16.918;2024-02-21T02:33:35;101266.47;;;7.19;97.10
84724;BME280;74944;52.322;16.918;2024-02-21T02:36:00;101270.56;;;7.16;97.10
84724;BME280;74944;52.322;16.918;2024-02-21T02:38:26;101264.28;;;7.16;97.40
84724;BME280;74944;52.322;16.918;2024-02-21T02:40:52;101265.34;;;7.15;96.81
84724;BME280;74944;52.322;16.918;2024-02-21T02:43:17;101262.84;;;7.13;97.46
84724;BME280;74944;52.322;16.918;2024-02-21T02:45:43;101257.72;;;7.17;97.28
84724;BME280;74944;52.322;16.918;2024-02-21T02:48:09;101264.00;;;7.17;97.24
84724;BME280;74944;52.322;16.918;2024-02-21T02:50:34;101253.91;;;7.18;97.28
84724;BME280;74944;52.322;16.918;2024-02-21T02:53:00;101264.84;;;7.18;97.22
84724;BME280;74944;52.322;16.918;2024-02-21T02:55:26;101251.19;;;7.18;97.26
84724;BME280;74944;52.322;16.918;2024-02-21T02:57:51;101248.44;;;7.18;97.52
84724;BME280;74944;52.322;16.918;2024-02-21T03:00:17;101251.75;;;7.20;97.34
84724;BME280;74944;52.322;16.918;2024-02-21T03:02:44;101243.81;;;7.18;97.66
84724;BME280;74944;52.322;16.918;2024-02-21T03:05:16;101243.00;;;7.18;97.37
84724;BME280;74944;52.322;16.918;2024-02-21T03:07:42;101238.34;;;7.18;97.91
84724;BME280;74944;52.322;16.918;2024-02-21T03:10:09;101239.94;;;7.14;98.19
84724;BME280;74944;52.322;16.918;2024-02-21T03:12:34;101238.34;;;7.18;97.23
84724;BME280;74944;52.322;16.918;2024-02-21T03:15:00;101234.78;;;7.18;97.73
84724;BME280;74944;52.322;16.918;2024-02-21T03:17:26;101233.91;;;7.12;97.99
84724;BME280;74944;52.322;16.918;2024-02-21T03:19:55;101236.97;;;7.16;97.90
84724;BME280;74944;52.322;16.918;2024-02-21T03:22:21;101227.66;;;7.17;97.65
84724;BME280;74944;52.322;16.918;2024-02-21T03:24:47;101224.94;;;7.17;98.01
84724;BME280;74944;52.322;16.918;2024-02-21T03:27:13;101224.94;;;7.17;98.11
84724;BME280;74944;52.322;16.918;2024-02-21T03:29:39;101215.09;;;7.16;97.77
84724;BME280;74944;52.322;16.918;2024-02-21T03:32:04;101218.66;;;7.16;97.91
84724;BME280;74944;52.322;16.918;2024-02-21T03:34:30;101217.56;;;7.17;98.12
84724;BME280;74944;52.322;16.918;2024-02-21T03:36:56;101217.84;;;7.16;98.06
84724;BME280;74944;52.322;16.918;2024-02-21T03:39:22;101210.41;;;7.11;98.01
84724;BME280;74944;52.322;16.918;2024-02-21T03:41:47;101215.34;;;7.14;97.92
84724;BME280;74944;52.322;16.918;2024-02-21T03:44:13;101206.34;;;7.14;98.06
84724;BME280;74944;52.322;16.918;2024-02-21T03:46:39;101206.59;;;7.12;98.08
84724;BME280;74944;52.322;16.918;2024-02-21T03:49:04;101212.88;;;7.13;97.90
84724;BME280;74944;52.322;16.918;2024-02-21T03:51:30;101200.56;;;7.10;98.05
84724;BME280;74944;52.322;16.918;2024-02-21T03:53:56;101196.97;;;7.05;98.13
84724;BME280;74944;52.322;16.918;2024-02-21T03:56:21;101210.13;;;7.08;97.93
84724;BME280;74944;52.322;16.918;2024-02-21T03:58:47;101191.81;;;7.08;97.96
84724;BME280;74944;52.322;16.918;2024-02-21T04:01:15;101195.91;;;7.06;98.44
84724;BME280;74944;52.322;16.918;2024-02-21T04:03:42;101193.72;;;7.08;97.98
84724;BME280;74944;52.322;16.918;2024-02-21T04:06:08;101197.53;;;7.07;98.17
84724;BME280;74944;52.322;16.918;2024-02-21T04:08:34;101189.66;;;7.10;98.42
84724;BME280;74944;52.322;16.918;2024-02-21T04:10:59;101191.00;;;7.08;97.75
84724;BME280;74944;52.322;16.918;2024-02-21T04:13:25;101182.81;;;7.08;97.91
84724;BME280;74944;52.322;16.918;2024-02-21T04:15:51;101176.25;;;7.09;97.76
84724;BME280;74944;52.322;16.918;2024-02-21T04:18:16;101176.81;;;7.11;98.13
84724;BME280;74944;52.322;16.918;2024-02-21T04:20:42;101178.97;;;7.09;97.84
84724;BME280;74944;52.322;16.918;2024-02-21T04:23:08;101170.28;;;7.12;97.99
84724;BME280;74944;52.322;16.918;2024-02-21T04:25:33;101171.66;;;7.14;97.80
84724;BME280;74944;52.322;16.918;2024-02-21T04:27:59;101165.38;;;7.14;97.18
84724;BME280;74944;52.322;16.918;2024-02-21T04:30:25;101164.28;;;7.15;97.34
84724;BME280;74944;52.322;16.918;2024-02-21T04:32:51;101172.22;;;7.16;97.10
84724;BME280;74944;52.322;16.918;2024-02-21T04:35:16;101167.56;;;7.17;97.22
84724;BME280;74944;52.322;16.918;2024-02-21T04:37:42;101165.41;;;7.19;97.10
84724;BME280;74944;52.322;16.918;2024-02-21T04:40:08;101170.63;;;7.20;97.04
84724;BME280;74944;52.322;16.918;2024-02-21T04:42:34;101169.78;;;7.20;96.69
84724;BME280;74944;52.322;16.918;2024-02-21T04:45:00;101157.75;;;7.21;96.82
84724;BME280;74944;52.322;16.918;2024-02-21T04:47:26;101156.16;;;7.25;96.92
84724;BME280;74944;52.322;16.918;2024-02-21T04:49:52;101151.19;;;7.22;96.75
84724;BME280;74944;52.322;16.918;2024-02-21T04:52:18;101149.03;;;7.24;96.50
84724;BME280;74944;52.322;16.918;2024-02-21T04:54:43;101152.31;;;7.26;96.50
84724;BME280;74944;52.322;16.918;2024-02-21T04:57:09;101140.59;;;7.25;96.50
84724;BME280;74944;52.322;16.918;2024-02-21T04:59:44;101149.59;;;7.26;96.85
84724;BME280;74944;52.322;16.918;2024-02-21T05:02:10;101141.41;;;7.26;96.93
84724;BME280;74944;52.322;16.918;2024-02-21T05:04:36;101123.94;;;7.27;96.40
84724;BME280;74944;52.322;16.918;2024-02-21T05:07:04;101139.50;;;7.26;96.92
84724;BME280;74944;52.322;16.918;2024-02-21T05:09:29;101127.22;;;7.29;96.32
84724;BME280;74944;52.322;16.918;2024-02-21T05:11:55;101128.31;;;7.28;96.95
84724;BME280;74944;52.322;16.918;2024-02-21T05:14:21;101128.59;;;7.26;97.15
84724;BME280;74944;52.322;16.918;2024-02-21T05:16:46;101120.94;;;7.28;97.45
84724;BME280;74944;52.322;16.918;2024-02-21T05:19:12;101129.97;;;7.29;97.49
84724;BME280;74944;52.322;16.918;2024-02-21T05:21:38;101129.41;;;7.32;97.27
84724;BME280;74944;52.322;16.918;2024-02-21T05:24:03;101116.59;;;7.32;96.94
84724;BME280;74944;52.322;16.918;2024-02-21T05:26:29;101124.53;;;7.34;96.98
84724;BME280;74944;52.322;16.918;2024-02-21T05:28:55;101114.44;;;7.34;96.62
84724;BME280;74944;52.322;16.918;2024-02-21T05:31:21;101111.97;;;7.33;97.15
84724;BME280;74944;52.322;16.918;2024-02-21T05:33:46;101116.31;;;7.34;97.49
84724;BME280;74944;52.322;16.918;2024-02-21T05:36:13;101115.50;;;7.33;97.15
84724;BME280;74944;52.322;16.918;2024-02-21T05:38:39;101110.03;;;7.33;97.38
84724;BME280;74944;52.322;16.918;2024-02-21T05:41:05;101109.22;;;7.33;97.07
84724;BME280;74944;52.322;16.918;2024-02-21T05:43:30;101111.16;;;7.32;97.23
84724;BME280;74944;52.322;16.918;2024-02-21T05:45:57;101104.56;;;7.28;97.40
84724;BME280;74944;52.322;16.918;2024-02-21T05:48:23;101105.38;;;7.29;97.72
84724;BME280;74944;52.322;16.918;2024-02-21T05:50:49;101105.94;;;7.31;98.03
84724;BME280;74944;52.322;16.918;2024-02-21T05:53:14;101102.09;;;7.32;97.43
84724;BME280;74944;52.322;16.918;2024-02-21T05:55:40;101094.69;;;7.27;97.41
84724;BME280;74944;52.322;16.918;2024-02-21T05:58:06;101092.22;;;7.26;98.08
84724;BME280;74944;52.322;16.918;2024-02-21T06:00:34;101087.59;;;7.26;97.67
84724;BME280;74944;52.322;16.918;2024-02-21T06:03:00;101091.66;;;7.24;97.64
84724;BME280;74944;52.322;16.918;2024-02-21T06:05:26;101091.66;;;7.24;97.73
84724;BME280;74944;52.322;16.918;2024-02-21T06:07:51;101102.09;;;7.27;98.13
84724;BME280;74944;52.322;16.918;2024-02-21T06:10:17;101100.22;;;7.32;97.51
84724;BME280;74944;52.322;16.918;2024-02-21T06:12:42;101102.09;;;7.32;97.34
84724;BME280;74944;52.322;16.918;2024-02-21T06:15:09;101094.47;;;7.34;97.58
84724;BME280;74944;52.322;16.918;2024-02-21T06:17:34;101098.03;;;7.34;97.74
84724;BME280;74944;52.322;16.918;2024-02-21T06:20:00;101096.38;;;7.33;97.96
84724;BME280;74944;52.322;16.918;2024-02-21T06:22:25;101099.94;;;7.34;97.69
84724;BME280;74944;52.322;16.918;2024-02-21T06:24:51;101094.75;;;7.37;96.93
84724;BME280;74944;52.322;16.918;2024-02-21T06:27:19;101084.09;;;7.36;97.53
84724;BME280;74944;52.322;16.918;2024-02-21T06:29:45;101086.81;;;7.36;97.59
84724;BME280;74944;52.322;16.918;2024-02-21T06:32:11;101090.41;;;7.36;97.60
84724;BME280;74944;52.322;16.918;2024-02-21T06:34:36;101086.56;;;7.37;97.46
84724;BME280;74944;52.322;16.918;2024-02-21T06:37:02;101078.06;;;7.34;97.16
84724;BME280;74944;52.322;16.918;2024-02-21T06:39:29;101085.19;;;7.35;97.94
84724;BME280;74944;52.322;16.918;2024-02-21T06:41:54;101078.94;;;7.39;97.19
84724;BME280;74944;52.322;16.918;2024-02-21T06:44:22;101075.41;;;7.43;97.51
84724;BME280;74944;52.322;16.918;2024-02-21T06:46:48;101072.91;;;7.42;96.89
84724;BME280;74944;52.322;16.918;2024-02-21T06:49:14;101080.59;;;7.45;97.13
84724;BME280;74944;52.322;16.918;2024-02-21T06:51:43;101075.41;;;7.43;97.04
84724;BME280;74944;52.322;16.918;2024-02-21T06:54:08;101075.69;;;7.47;96.75
84724;BME280;74944;52.322;16.918;2024-02-21T06:56:36;101077.63;;;7.51;96.51
84724;BME280;74944;52.322;16.918;2024-02-21T06:59:02;101078.19;;;7.53;96.99
84724;BME280;74944;52.322;16.918;2024-02-21T07:01:31;101080.13;;;7.58;96.46
84724;BME280;74944;52.322;16.918;2024-02-21T07:03:57;101079.59;;;7.61;95.84
84724;BME280;74944;52.322;16.918;2024-02-21T07:06:23;101071.66;;;7.59;96.34
84724;BME280;74944;52.322;16.918;2024-02-21T07:08:49;101073.28;;;7.60;96.43
84724;BME280;74944;52.322;16.918;2024-02-21T07:11:14;101071.66;;;7.64;96.63
84724;BME280;74944;52.322;16.918;2024-02-21T07:13:40;101066.50;;;7.68;95.87
84724;BME280;74944;52.322;16.918;2024-02-21T07:16:06;101065.44;;;7.69;96.01
84724;BME280;74944;52.322;16.918;2024-02-21T07:18:32;101061.59;;;7.70;95.44
84724;BME280;74944;52.322;16.918;2024-02-21T07:20:58;101057.50;;;7.72;95.40
84724;BME280;74944;52.322;16.918;2024-02-21T07:23:24;101056.41;;;7.73;96.09
84724;BME280;74944;52.322;16.918;2024-02-21T07:25:49;101054.19;;;7.70;96.39
84724;BME280;74944;52.322;16.918;2024-02-21T07:28:15;101052.56;;;7.69;96.47
84724;BME280;74944;52.322;16.918;2024-02-21T07:30:42;101051.47;;;7.70;96.07
84724;BME280;74944;52.322;16.918;2024-02-21T07:33:07;101054.50;;;7.74;95.75
84724;BME280;74944;52.322;16.918;2024-02-21T07:35:33;101052.03;;;7.72;96.30
84724;BME280;74944;52.322;16.918;2024-02-21T07:37:59;101046.56;;;7.72;96.03
84724;BME280;74944;52.322;16.918;2024-02-21T07:40:24;101044.66;;;7.78;96.61
84724;BME280;74944;52.322;16.918;2024-02-21T07:42:50;101033.75;;;7.82;95.27
84724;BME280;74944;52.322;16.918;2024-02-21T07:45:16;101031.28;;;7.86;95.44
84724;BME280;74944;52.322;16.918;2024-02-21T07:47:46;101040.88;;;7.83;94.88
84724;BME280;74944;52.322;16.918;2024-02-21T07:50:11;101034.84;;;7.86;95.65
84724;BME280;74944;52.322;16.918;2024-02-21T07:52:37;101034.03;;;7.86;95.57
84724;BME280;74944;52.322;16.918;2024-02-21T07:55:03;101035.13;;;7.90;95.17
84724;BME280;74944;52.322;16.918;2024-02-21T07:57:30;101036.50;;;7.92;95.71
84724;BME280;74944;52.322;16.918;2024-02-21T07:59:55;101039.25;;;7.92;94.97
84724;BME280;74944;52.322;16.918;2024-02-21T08:02:21;101029.16;;;7.93;94.77
84724;BME280;74944;52.322;16.918;2024-02-21T08:04:47;101014.38;;;7.89;94.97
84724;BME280;74944;52.322;16.918;2024-02-21T08:07:12;100999.59;;;7.90;95.24
84724;BME280;74944;52.322;16.918;2024-02-21T08:09:40;100994.97;;;7.95;95.10
84724;BME280;74944;52.322;16.918;2024-02-21T08:12:06;101002.34;;;8.00;94.81
84724;BME280;74944;52.322;16.918;2024-02-21T08:14:32;101005.34;;;7.98;95.07
84724;BME280;74944;52.322;16.918;2024-02-21T08:16:57;101019.63;;;8.10;94.64
84724;BME280;74944;52.322;16.918;2024-02-21T08:19:24;101021.00;;;8.13;93.79
84724;BME280;74944;52.322;16.918;2024-02-21T08:21:50;101024.03;;;8.16;93.92
84724;BME280;74944;52.322;16.918;2024-02-21T08:24:18;101016.66;;;8.21;93.77
84724;BME280;74944;52.322;16.918;2024-02-21T08:26:45;101023.50;;;8.24;94.08
84724;BME280;74944;52.322;16.918;2024-02-21T08:29:14;101015.00;;;8.30;93.41
84724;BME280;74944;52.322;16.918;2024-02-21T08:31:39;101023.22;;;8.35;92.82
84724;BME280;74944;52.322;16.918;2024-02-21T08:34:05;101030.63;;;8.40;92.70
84724;BME280;74944;52.322;16.918;2024-02-21T08:36:34;101018.31;;;8.42;91.81
84724;BME280;74944;52.322;16.918;2024-02-21T08:39:01;101021.59;;;8.44;91.74
84724;BME280;74944;52.322;16.918;2024-02-21T08:41:32;101020.47;;;8.45;92.36
84724;BME280;74944;52.322;16.918;2024-02-21T08:43:57;101019.94;;;8.48;92.09
84724;BME280;74944;52.322;16.918;2024-02-21T08:46:25;101010.91;;;8.52;91.46
84724;BME280;74944;52.322;16.918;2024-02-21T08:48:52;101015.03;;;8.50;91.80
84724;BME280;74944;52.322;16.918;2024-02-21T08:51:21;101004.31;;;8.53;91.59
84724;BME280;74944;52.322;16.918;2024-02-21T08:53:47;101010.38;;;8.51;91.17
84724;BME280;74944;52.322;16.918;2024-02-21T08:56:13;101004.34;;;8.44;91.18
84724;BME280;74944;52.322;16.918;2024-02-21T08:58:41;101001.34;;;8.40;91.98
84724;BME280;74944;52.322;16.918;2024-02-21T09:01:08;101003.53;;;8.38;91.35
84724;BME280;74944;52.322;16.918;2024-02-21T09:03:39;101000.22;;;8.41;91.36
84724;BME280;74944;52.322;16.918;2024-02-21T09:06:07;101002.69;;;8.43;91.98
84724;BME280;74944;52.322;16.918;2024-02-21T09:08:33;100990.09;;;8.47;91.94
84724;BME280;74944;52.322;16.918;2024-02-21T09:10:59;100990.91;;;8.47;90.43
84724;BME280;74944;52.322;16.918;2024-02-21T09:13:28;100994.75;;;8.51;91.05
84724;BME280;74944;52.322;16.918;2024-02-21T09:15:57;100983.81;;;8.56;90.69
84724;BME280;74944;52.322;16.918;2024-02-21T09:18:22;100988.47;;;8.60;90.71
84724;BME280;74944;52.322;16.918;2024-02-21T09:20:48;100982.44;;;8.58;90.76
84724;BME280;74944;52.322;16.918;2024-02-21T09:23:13;100980.22;;;8.65;91.05
84724;BME280;74944;52.322;16.918;2024-02-21T09:25:44;100976.94;;;8.73;90.52
84724;BME280;74944;52.322;16.918;2024-02-21T09:28:16;100980.75;;;8.87;89.76
84724;BME280;74944;52.322;16.918;2024-02-21T09:30:44;100976.38;;;8.91;89.83
84724;BME280;74944;52.322;16.918;2024-02-21T09:33:11;100975.53;;;8.95;89.58
84724;BME280;74944;52.322;16.918;2024-02-21T09:35:36;100983.75;;;8.95;88.45
84724;BME280;74944;52.322;16.918;2024-02-21T09:38:02;100980.19;;;8.90;88.69
84724;BME280;74944;52.322;16.918;2024-02-21T09:40:31;100976.38;;;8.91;89.18
84724;BME280;74944;52.322;16.918;2024-02-21T09:43:03;100979.38;;;8.89;89.58
84724;BME280;74944;52.322;16.918;2024-02-21T09:45:30;100976.38;;;8.91;89.04
84724;BME280;74944;52.322;16.918;2024-02-21T09:50:57;100987.88;;;8.83;88.85
84724;BME280;74944;52.322;16.918;2024-02-21T09:53:24;100970.63;;;8.83;89.08
84724;BME280;74944;52.322;16.918;2024-02-21T09:55:53;100970.06;;;8.86;89.31
84724;BME280;74944;52.322;16.918;2024-02-21T09:58:26;100984.31;;;8.87;89.10
84724;BME280;74944;52.322;16.918;2024-02-21T10:00:54;100975.81;;;8.89;89.03
84724;BME280;74944;52.322;16.918;2024-02-21T10:03:20;100968.97;;;8.91;89.22
84724;BME280;74944;52.322;16.918;2024-02-21T10:05:49;100966.22;;;8.91;88.83
84724;BME280;74944;52.322;16.918;2024-02-21T10:08:17;100965.69;;;8.94;88.94
84724;BME280;74944;52.322;16.918;2024-02-21T10:10:44;100963.22;;;8.93;88.97
84724;BME280;74944;52.322;16.918;2024-02-21T10:13:11;100966.50;;;8.90;88.83
84724;BME280;74944;52.322;16.918;2024-02-21T10:15:47;100971.41;;;8.88;88.51
84724;BME280;74944;52.322;16.918;2024-02-21T10:18:18;100973.91;;;8.89;88.85
84724;BME280;74944;52.322;16.918;2024-02-21T10:20:46;100966.25;;;8.87;89.25
84724;BME280;74944;52.322;16.918;2024-02-21T10:23:12;100969.53;;;8.88;89.51
84724;BME280;74944;52.322;16.918;2024-02-21T10:25:38;100967.84;;;8.97;88.43
84724;BME280;74944;52.322;16.918;2024-02-21T10:28:07;100963.97;;;9.08;87.96
84724;BME280;74944;52.322;16.918;2024-02-21T10:30:35;100966.16;;;9.21;88.20
84724;BME280;74944;52.322;16.918;2024-02-21T10:33:01;100957.59;;;9.32;87.54
84724;BME280;74944;52.322;16.918;2024-02-21T10:35:33;100957.28;;;9.44;87.04
84724;BME280;74944;52.322;16.918;2024-02-21T10:37:59;100963.25;;;9.51;86.20
84724;BME280;74944;52.322;16.918;2024-02-21T10:40:29;100950.41;;;9.51;86.98
84724;BME280;74944;52.322;16.918;2024-02-21T10:42:59;100948.47;;;9.52;86.46
84724;BME280;74944;52.322;16.918;2024-02-21T10:47:55;100944.03;;;9.60;85.67
84724;BME280;74944;52.322;16.918;2024-02-21T10:50:24;100923.97;;;9.65;86.06
84724;BME280;74944;52.322;16.918;2024-02-21T10:53:08;100918.94;;;9.82;85.80
84724;BME280;74944;52.322;16.918;2024-02-21T10:55:43;100914.16;;;10.02;84.21
84724;BME280;74944;52.322;16.918;2024-02-21T10:58:14;100910.22;;;10.13;83.49
84724;BME280;74944;52.322;16.918;2024-02-21T11:00:44;100900.25;;;10.22;84.42
84724;BME280;74944;52.322;16.918;2024-02-21T11:03:09;100889.47;;;10.30;83.70
84724;BME280;74944;52.322;16.918;2024-02-21T11:05:36;100894.94;;;10.35;82.57
84724;BME280;74944;52.322;16.918;2024-02-21T11:08:05;100904.84;;;10.31;83.37
84724;BME280;74944;52.322;16.918;2024-02-21T11:10:37;100895.81;;;10.30;82.82
84724;BME280;74944;52.322;16.918;2024-02-21T11:13:07;100880.69;;;10.28;83.22
84724;BME280;74944;52.322;16.918;2024-02-21T11:15:33;100876.25;;;10.37;82.78
84724;BME280;74944;52.322;16.918;2024-02-21T11:18:05;100871.22;;;10.44;82.71
84724;BME280;74944;52.322;16.918;2024-02-21T11:20:36;100872.53;;;10.51;82.24
84724;BME280;74944;52.322;16.918;2024-02-21T11:23:05;100867.56;;;10.53;81.71
84724;BME280;74944;52.322;16.918;2024-02-21T11:25:33;100862.94;;;10.49;82.04
84724;BME280;74944;52.322;16.918;2024-02-21T11:28:05;100862.97;;;10.44;81.92
84724;BME280;74944;52.322;16.918;2024-02-21T11:30:37;100856.75;;;10.33;81.99
84724;BME280;74944;52.322;16.918;2024-02-21T11:33:05;100850.75;;;10.31;81.84
84724;BME280;74944;52.322;16.918;2024-02-21T11:35:34;100843.13;;;10.24;82.26
84724;BME280;74944;52.322;16.918;2024-02-21T11:38:12;100840.44;;;10.19;82.34
84724;BME280;74944;52.322;16.918;2024-02-21T11:40:46;100834.63;;;10.25;82.67
84724;BME280;74944;52.322;16.918;2024-02-21T11:43:12;100834.34;;;10.27;82.45
84724;BME280;74944;52.322;16.918;2024-02-21T11:45:38;100836.84;;;10.23;82.59
84724;BME280;74944;52.322;16.918;2024-02-21T11:48:09;100831.09;;;10.20;82.41
84724;BME280;74944;52.322;16.918;2024-02-21T11:50:41;100830.81;;;10.21;82.68
84724;BME280;74944;52.322;16.918;2024-02-21T11:53:06;100831.44;;;10.13;82.12
84724;BME280;74944;52.322;16.918;2024-02-21T11:55:32;100823.47;;;10.12;82.21
84724;BME280;74944;52.322;16.918;2024-02-21T11:57:59;100822.91;;;10.15;82.42
84724;BME280;74944;52.322;16.918;2024-02-21T12:00:25;100829.81;;;10.12;82.24
84724;BME280;74944;52.322;16.918;2024-02-21T12:02:51;100837.50;;;10.10;82.94
84724;BME280;74944;52.322;16.918;2024-02-21T12:05:18;100835.31;;;10.07;82.50
84724;BME280;74944;52.322;16.918;2024-02-21T12:07:45;100833.44;;;10.08;82.91
84724;BME280;74944;52.322;16.918;2024-02-21T12:10:11;100831.22;;;10.10;82.57
84724;BME280;74944;52.322;16.918;2024-02-21T12:12:37;100824.66;;;10.06;82.81
84724;BME280;74944;52.322;16.918;2024-02-21T12:15:03;100834.25;;;10.03;83.16
84724;BME280;74944;52.322;16.918;2024-02-21T12:17:33;100822.75;;;10.01;82.90
84724;BME280;74944;52.322;16.918;2024-02-21T12:20:01;100832.09;;;10.00;84.22
84724;BME280;74944;52.322;16.918;2024-02-21T12:22:29;100835.72;;;9.96;83.71
84724;BME280;74944;52.322;16.918;2024-02-21T12:24:58;100824.16;;;9.99;83.38
84724;BME280;74944;52.322;16.918;2024-02-21T12:27:24;100817.84;;;9.98;83.37
84724;BME280;74944;52.322;16.918;2024-02-21T12:29:50;100809.09;;;9.96;83.74
84724;BME280;74944;52.322;16.918;2024-02-21T12:32:16;100811.03;;;9.96;83.48
84724;BME280;74944;52.322;16.918;2024-02-21T12:34:42;100802.47;;;9.97;83.65
84724;BME280;74944;52.322;16.918;2024-02-21T12:37:07;100808.28;;;9.96;82.97
84724;BME280;74944;52.322;16.918;2024-02-21T12:39:33;100804.66;;;10.00;84.07
84724;BME280;74944;52.322;16.918;2024-02-21T12:41:59;100801.66;;;10.02;83.44
84724;BME280;74944;52.322;16.918;2024-02-21T12:44:25;100801.09;;;10.00;83.22
84724;BME280;74944;52.322;16.918;2024-02-21T12:46:50;100793.41;;;10.02;83.30
84724;BME280;74944;52.322;16.918;2024-02-21T12:49:19;100793.34;;;10.07;83.09
84724;BME280;74944;52.322;16.918;2024-02-21T12:51:44;100783.25;;;10.02;83.24